Weather History for Kokomo, IN

Change the Weather History Date:

Monday, March 10, 2014

  Actual Average (KGUS) Record (KGUS)
Temperature  
Mean Temperature 46 °F -  
Max Temperature 55 °F 41 °F 65 °F (2009)
Min Temperature 37 °F 25 °F 8 °F (2003)
Degree Days  
Heating Degree Days 19    
Moisture  
Dew Point 35 °F    
Average Humidity 72    
Maximum Humidity 81    
Minimum Humidity 62    
Precipitation  
Precipitation 0.00 in - - ()
Sea Level Pressure  
Sea Level Pressure 29.77 in    
Wind  
Wind Speed 16 mph (WSW)    
Max Wind Speed 24 mph    
Max Gust Speed 29 mph    
Visibility 10 miles    
Events      
Averages and records for this station are not official NWS values.
T = Trace of Precipitation, MM = Missing Value Source: NWS Daily Summary

Daily Weather History Graph

Daily Weather History Graph

Search for Another Location

Airport:

Trip Planner

Search our weather history database for the weather conditions in past years. The results will help you decide how hot, cold, wet, or windy it might be!

Date:

Astronomy

Mar. 10, 2014 Rise Set
Actual Time 7:03 AM CDT 6:45 PM CDT
Civil Twilight 6:36 AM CDT 7:12 PM CDT
Nautical Twilight 6:05 AM CDT 7:44 PM CDT
Astronomical Twilight 5:33 AM CDT 8:16 PM CDT
Moon 1:27 PM CDT (3/10) 3:16 AM CDT (3/10)
Length of Visible Light 12h 36m
Length of Day
11h 41m
Waxing Gibbous, 70% of the Moon is Illuminated
Mar 10
Waxing Gibbous
Mar 16
Full
Mar 23
Last Quarter
Mar 30
New
Apr 7
First Quarter

Hourly Weather History & Observations

Time (CDT) Temp. Windchill Dew Point Humidity Pressure Visibility Wind Dir Wind Speed Gust Speed Precip Events Conditions
12:15 AM 37.4 °F 27.8 °F 30.2 °F 75% 29.91 in 10.0 mi SW 17.3 mph 21.9 mph N/A   Clear
12:35 AM 37.4 °F 27.2 °F 30.2 °F 75% 29.90 in 10.0 mi SW 19.6 mph - N/A   Clear
12:55 AM 37.4 °F 27.5 °F 28.4 °F 70% 29.90 in 10.0 mi SW 18.4 mph 24.2 mph N/A   Clear
1:15 AM 37.4 °F 26.9 °F 30.2 °F 75% 29.89 in 10.0 mi SW 20.7 mph 25.3 mph N/A   Clear
1:35 AM 37.4 °F 27.5 °F 30.2 °F 75% 29.88 in 10.0 mi SW 18.4 mph 24.2 mph N/A   Clear
1:55 AM 37.4 °F 28.2 °F 30.2 °F 75% 29.87 in 10.0 mi SW 16.1 mph 24.2 mph N/A   Clear
2:15 AM 37.4 °F 27.8 °F 30.2 °F 75% 29.86 in 10.0 mi SW 17.3 mph 24.2 mph N/A   Clear
2:35 AM 37.4 °F 27.8 °F 30.2 °F 75% 29.85 in 10.0 mi WSW 17.3 mph - N/A   Clear
2:55 AM 39.2 °F 29.6 °F 30.2 °F 70% 29.84 in 10.0 mi WSW 19.6 mph - N/A   Clear
3:15 AM 39.2 °F 29.8 °F 30.2 °F 70% 29.83 in 10.0 mi WSW 18.4 mph - N/A   Clear
3:35 AM 39.2 °F 29.3 °F 32.0 °F 75% 29.83 in 10.0 mi WSW 20.7 mph 27.6 mph N/A   Clear
3:55 AM 39.2 °F 29.8 °F 30.2 °F 70% 29.82 in 10.0 mi WSW 18.4 mph 24.2 mph N/A   Clear
4:15 AM 37.4 °F 27.5 °F 30.2 °F 75% 29.81 in 10.0 mi WSW 18.4 mph - N/A   Clear
4:35 AM 39.2 °F 30.5 °F 30.2 °F 70% 29.81 in 10.0 mi WSW 16.1 mph - N/A   Clear
4:55 AM 39.2 °F 30.5 °F 30.2 °F 70% 29.81 in 10.0 mi WSW 16.1 mph 21.9 mph N/A   Clear
5:15 AM 39.2 °F 30.8 °F 30.2 °F 70% 29.81 in 10.0 mi WSW 15.0 mph - N/A   Clear
5:35 AM 37.4 °F 28.2 °F 30.2 °F 75% 29.82 in 10.0 mi WSW 16.1 mph 20.7 mph N/A   Clear
5:55 AM 37.4 °F 27.8 °F 30.2 °F 75% 29.81 in 10.0 mi WSW 17.3 mph - N/A   Partly Cloudy
6:15 AM 37.4 °F 28.2 °F 30.2 °F 75% 29.81 in 10.0 mi WSW 16.1 mph - N/A   Clear
6:35 AM 37.4 °F 28.5 °F 30.2 °F 75% 29.80 in 10.0 mi WSW 15.0 mph - N/A   Partly Cloudy
6:55 AM 37.4 °F 28.5 °F 30.2 °F 75% 29.81 in 10.0 mi WSW 15.0 mph - N/A   Clear
7:15 AM 37.4 °F 28.2 °F 32.0 °F 81% 29.81 in 9.0 mi WSW 16.1 mph - N/A   Scattered Clouds
7:35 AM 39.2 °F 30.5 °F 32.0 °F 75% 29.81 in 9.0 mi WSW 16.1 mph - N/A   Mostly Cloudy
7:55 AM 39.2 °F 30.8 °F 32.0 °F 75% 29.80 in 9.0 mi WSW 15.0 mph - N/A   Partly Cloudy
8:15 AM 39.2 °F 30.2 °F 32.0 °F 75% 29.80 in 9.0 mi WSW 17.3 mph - N/A   Mostly Cloudy
8:35 AM 39.2 °F 29.6 °F 32.0 °F 75% 29.78 in 9.0 mi SW 19.6 mph - N/A   Overcast
8:55 AM 41.0 °F 32.2 °F 32.0 °F 70% 29.79 in 9.0 mi WSW 18.4 mph - N/A   Mostly Cloudy
9:15 AM 41.0 °F 32.5 °F 33.8 °F 76% 29.80 in 9.0 mi WSW 17.3 mph - N/A   Mostly Cloudy
9:35 AM 42.8 °F 35.4 °F 33.8 °F 70% 29.80 in 10.0 mi WSW 15.0 mph - N/A   Scattered Clouds
9:55 AM 42.8 °F 34.5 °F 35.6 °F 76% 29.79 in 9.0 mi WSW 18.4 mph 24.2 mph N/A   Scattered Clouds
10:15 AM 44.6 °F 37.2 °F 35.6 °F 71% 29.79 in 10.0 mi WSW 17.3 mph - N/A   Mostly Cloudy
10:35 AM 44.6 °F 36.9 °F 35.6 °F 71% 29.79 in 10.0 mi WSW 18.4 mph - N/A   Scattered Clouds
10:55 AM 46.4 °F 38.7 °F 35.6 °F 66% 29.79 in 10.0 mi WSW 20.7 mph - N/A   Mostly Cloudy
11:15 AM 48.2 °F - 37.4 °F 66% 29.79 in 10.0 mi WSW 20.7 mph - N/A   Scattered Clouds
11:35 AM 48.2 °F - 39.2 °F 71% 29.78 in 10.0 mi WSW 17.3 mph 24.2 mph N/A   Clear
11:55 AM 50.0 °F - 39.2 °F 66% 29.78 in 10.0 mi West 19.6 mph 24.2 mph N/A   Clear
12:15 PM 51.8 °F - 39.2 °F 62% 29.77 in 10.0 mi WSW 16.1 mph - N/A   Clear
12:35 PM - - - N/A% 29.77 in 10.0 mi WSW 19.6 mph 23.0 mph N/A   Clear
12:55 PM 53.6 °F - 41.0 °F 62% 29.76 in 10.0 mi WSW 19.6 mph - N/A   Clear
1:15 PM - - - N/A% 29.74 in 10.0 mi WSW 17.3 mph - N/A   Clear
1:35 PM 53.6 °F - 42.8 °F 67% 29.75 in 10.0 mi WSW 17.3 mph 23.0 mph N/A   Clear
1:55 PM 53.6 °F - 42.8 °F 67% 29.73 in 10.0 mi SW 18.4 mph - N/A   Clear
2:15 PM 55.4 °F - 42.8 °F 63% 29.72 in 10.0 mi SW 18.4 mph 21.9 mph N/A   Clear
2:35 PM 55.4 °F - 44.6 °F 67% 29.71 in 9.0 mi SW 17.3 mph 23.0 mph N/A   Clear
2:55 PM 55.4 °F - 42.8 °F 63% 29.71 in 10.0 mi SW 24.2 mph 27.6 mph N/A   Clear
3:15 PM 55.4 °F - 42.8 °F 63% 29.71 in 9.0 mi SW 23.0 mph 28.8 mph N/A   Clear
3:35 PM 55.4 °F - 42.8 °F 63% 29.70 in 9.0 mi WSW 17.3 mph - N/A   Clear
3:55 PM 55.4 °F - 42.8 °F 63% 29.70 in 9.0 mi SW 21.9 mph - N/A   Clear
4:15 PM 55.4 °F - 42.8 °F 63% 29.70 in 10.0 mi SW 20.7 mph 26.5 mph N/A   Clear
4:35 PM - - - N/A% 29.69 in 10.0 mi WSW 15.0 mph - N/A   Clear
4:55 PM - - - N/A% 29.68 in 10.0 mi WSW 18.4 mph - N/A   Clear
5:15 PM - - - N/A% 29.68 in 10.0 mi WSW 13.8 mph - N/A   Clear
5:35 PM - - - N/A% 29.69 in 10.0 mi West 10.4 mph - N/A   Clear
5:55 PM - - - N/A% 29.70 in 10.0 mi West 6.9 mph - N/A   Clear
6:15 PM - - - N/A% 29.70 in 10.0 mi West 6.9 mph - N/A   Clear
6:35 PM 48.2 °F - 39.2 °F 71% 29.71 in 10.0 mi West 6.9 mph - N/A   Clear
6:55 PM 48.2 °F - 39.2 °F 71% 29.71 in 10.0 mi WSW 8.1 mph - N/A   Clear
7:15 PM 46.4 °F 42.4 °F 37.4 °F 71% 29.71 in 10.0 mi SW 8.1 mph - N/A   Clear
7:35 PM 46.4 °F 41.9 °F 37.4 °F 71% 29.71 in 10.0 mi SW 9.2 mph - N/A   Clear
7:55 PM 44.6 °F 40.2 °F 37.4 °F 76% 29.71 in 10.0 mi WSW 8.1 mph - N/A   Clear
8:15 PM 44.6 °F 40.2 °F 37.4 °F 76% 29.72 in 10.0 mi WSW 8.1 mph - N/A   Clear
8:35 PM 44.6 °F 40.7 °F 37.4 °F 76% 29.73 in 10.0 mi WSW 6.9 mph - N/A   Clear
8:55 PM 44.6 °F 40.2 °F 37.4 °F 76% 29.72 in 10.0 mi SW 8.1 mph - N/A   Clear
9:15 PM 44.6 °F 40.2 °F 37.4 °F 76% 29.72 in 10.0 mi WSW 8.1 mph - N/A   Clear
9:35 PM 42.8 °F 37.5 °F 35.6 °F 76% 29.72 in 10.0 mi SW 9.2 mph - N/A   Clear
9:55 PM 44.6 °F 39.2 °F 37.4 °F 76% 29.71 in 10.0 mi SW 10.4 mph - N/A   Clear
10:15 PM 46.4 °F 41.9 °F 37.4 °F 71% 29.71 in 10.0 mi SW 9.2 mph - N/A   Clear
10:35 PM 46.4 °F 41.5 °F 37.4 °F 71% 29.71 in 10.0 mi SW 10.4 mph - N/A   Clear
10:55 PM 44.6 °F 39.7 °F 37.4 °F 76% 29.71 in 10.0 mi WSW 9.2 mph - N/A   Clear
11:15 PM 44.6 °F 40.2 °F 39.2 °F 81% 29.70 in 10.0 mi WSW 8.1 mph - N/A   Clear
11:35 PM 44.6 °F 40.2 °F 37.4 °F 76% 29.70 in 10.0 mi WSW 8.1 mph - N/A   Clear
11:55 PM 44.6 °F 41.4 °F 37.4 °F 76% 29.70 in 10.0 mi WSW 5.8 mph - N/A   Clear